sensor_id;sensor_type;location;lat;lon;timestamp;pressure;altitude;pressure_sealevel;temperature;humidity
46886;BME280;32622;48.202;11.326;2023-04-20T00:00:43;1018.75;;;6.06;34.56
46886;BME280;32622;48.202;11.326;2023-04-20T00:02:46;1018.80;;;5.44;35.22
46886;BME280;32622;48.202;11.326;2023-04-20T00:04:50;1018.57;;;6.19;34.91
46886;BME280;32622;48.202;11.326;2023-04-20T00:06:53;1018.77;;;5.00;35.51
46886;BME280;32622;48.202;11.326;2023-04-20T00:08:56;1018.40;;;6.46;34.42
46886;BME280;32622;48.202;11.326;2023-04-20T00:10:59;1018.69;;;5.23;35.48
46886;BME280;32622;48.202;11.326;2023-04-20T00:13:03;1018.72;;;5.02;35.39
46886;BME280;32622;48.202;11.326;2023-04-20T00:15:07;1018.59;;;5.48;35.51
46886;BME280;32622;48.202;11.326;2023-04-20T00:17:10;1018.57;;;5.32;35.72
46886;BME280;32622;48.202;11.326;2023-04-20T00:19:14;1018.40;;;5.99;35.00
46886;BME280;32622;48.202;11.326;2023-04-20T00:21:17;1018.44;;;5.76;35.18
46886;BME280;32622;48.202;11.326;2023-04-20T00:23:20;1018.52;;;5.32;35.88
46886;BME280;32622;48.202;11.326;2023-04-20T00:25:23;1018.45;;;5.45;35.78
46886;BME280;32622;48.202;11.326;2023-04-20T00:27:27;1018.20;;;6.15;35.12
46886;BME280;32622;48.202;11.326;2023-04-20T00:29:30;1018.28;;;5.75;35.39
46886;BME280;32622;48.202;11.326;2023-04-20T00:31:34;1018.37;;;5.19;36.23
46886;BME280;32622;48.202;11.326;2023-04-20T00:33:37;1018.23;;;5.70;35.70
46886;BME280;32622;48.202;11.326;2023-04-20T00:35:40;1018.67;;;3.71;38.86
46886;BME280;32622;48.202;11.326;2023-04-20T00:37:43;1018.21;;;5.56;36.95
46886;BME280;32622;48.202;11.326;2023-04-20T00:39:47;1018.23;;;5.42;36.13
46886;BME280;32622;48.202;11.326;2023-04-20T00:41:50;1018.00;;;6.24;35.74
46886;BME280;32622;48.202;11.326;2023-04-20T00:43:53;1018.50;;;4.01;36.83
46886;BME280;32622;48.202;11.326;2023-04-20T00:45:57;1018.05;;;5.74;35.57
46886;BME280;32622;48.202;11.326;2023-04-20T00:48:00;1017.93;;;6.03;35.15
46886;BME280;32622;48.202;11.326;2023-04-20T00:50:04;1018.08;;;5.37;35.51
46886;BME280;32622;48.202;11.326;2023-04-20T00:52:08;1017.90;;;5.89;35.43
46886;BME280;32622;48.202;11.326;2023-04-20T00:54:12;1018.10;;;4.88;36.80
46886;BME280;32622;48.202;11.326;2023-04-20T00:56:15;1017.87;;;5.62;36.08
46886;BME280;32622;48.202;11.326;2023-04-20T00:58:19;1017.91;;;5.40;36.53
46886;BME280;32622;48.202;11.326;2023-04-20T01:00:23;1018.07;;;4.60;37.16
46886;BME280;32622;48.202;11.326;2023-04-20T01:02:27;1018.04;;;4.67;37.90
46886;BME280;32622;48.202;11.326;2023-04-20T01:04:30;1017.85;;;5.49;36.67
46886;BME280;32622;48.202;11.326;2023-04-20T01:06:33;1018.02;;;4.80;36.78
46886;BME280;32622;48.202;11.326;2023-04-20T01:08:45;1017.86;;;5.46;36.60
46886;BME280;32622;48.202;11.326;2023-04-20T01:10:49;1017.89;;;5.17;35.82
46886;BME280;32622;48.202;11.326;2023-04-20T01:12:52;1017.81;;;5.46;35.80
46886;BME280;32622;48.202;11.326;2023-04-20T01:14:55;1017.59;;;6.11;35.17
46886;BME280;32622;48.202;11.326;2023-04-20T01:16:59;1017.58;;;5.98;34.72
46886;BME280;32622;48.202;11.326;2023-04-20T01:19:02;1017.60;;;5.73;35.45
46886;BME280;32622;48.202;11.326;2023-04-20T01:21:06;1017.91;;;4.50;36.76
46886;BME280;32622;48.202;11.326;2023-04-20T01:23:10;1017.60;;;5.55;35.48
46886;BME280;32622;48.202;11.326;2023-04-20T01:25:14;1017.60;;;5.41;35.42
46886;BME280;32622;48.202;11.326;2023-04-20T01:27:17;1017.62;;;5.26;36.02
46886;BME280;32622;48.202;11.326;2023-04-20T01:29:21;1017.67;;;5.14;35.89
46886;BME280;32622;48.202;11.326;2023-04-20T01:31:24;1017.80;;;4.62;37.82
46886;BME280;32622;48.202;11.326;2023-04-20T01:33:27;1017.77;;;4.66;37.55
46886;BME280;32622;48.202;11.326;2023-04-20T01:35:30;1017.46;;;5.98;36.10
46886;BME280;32622;48.202;11.326;2023-04-20T01:37:34;1017.78;;;4.76;36.70
46886;BME280;32622;48.202;11.326;2023-04-20T01:39:38;1017.73;;;5.01;37.06
46886;BME280;32622;48.202;11.326;2023-04-20T01:41:41;1017.72;;;4.89;37.48
46886;BME280;32622;48.202;11.326;2023-04-20T01:43:44;1017.90;;;3.98;38.63
46886;BME280;32622;48.202;11.326;2023-04-20T01:45:48;1017.68;;;4.75;37.42
46886;BME280;32622;48.202;11.326;2023-04-20T01:47:51;1017.80;;;4.00;37.53
46886;BME280;32622;48.202;11.326;2023-04-20T01:49:55;1017.69;;;4.50;37.89
46886;BME280;32622;48.202;11.326;2023-04-20T01:51:58;1018.13;;;2.51;39.79
46886;BME280;32622;48.202;11.326;2023-04-20T01:54:02;1017.69;;;4.38;38.16
46886;BME280;32622;48.202;11.326;2023-04-20T01:58:26;1017.24;;;5.91;38.03
46886;BME280;32622;48.202;11.326;2023-04-20T02:00:29;1017.58;;;4.38;37.92
46886;BME280;32622;48.202;11.326;2023-04-20T02:02:32;1017.59;;;4.14;38.48
46886;BME280;32622;48.202;11.326;2023-04-20T02:04:36;1017.69;;;3.85;38.65
46886;BME280;32622;48.202;11.326;2023-04-20T02:06:55;1017.56;;;4.30;38.52
46886;BME280;32622;48.202;11.326;2023-04-20T02:08:58;1017.82;;;3.16;41.00
46886;BME280;32622;48.202;11.326;2023-04-20T02:12:33;1017.18;;;5.48;39.30
46886;BME280;32622;48.202;11.326;2023-04-20T02:15:28;1017.63;;;3.79;40.78
46886;BME280;32622;48.202;11.326;2023-04-20T02:18:32;1017.56;;;4.23;41.53
46886;BME280;32622;48.202;11.326;2023-04-20T02:22:36;1017.68;;;3.69;42.13
46886;BME280;32622;48.202;11.326;2023-04-20T02:26:36;1017.44;;;4.67;40.29
46886;BME280;32622;48.202;11.326;2023-04-20T02:28:41;1017.45;;;4.60;40.16
46886;BME280;32622;48.202;11.326;2023-04-20T02:33:16;1017.42;;;4.75;40.63
46886;BME280;32622;48.202;11.326;2023-04-20T02:45:11;1017.72;;;3.02;46.41
46886;BME280;32622;48.202;11.326;2023-04-20T02:47:29;1017.72;;;2.72;44.66
46886;BME280;32622;48.202;11.326;2023-04-20T02:50:22;1017.40;;;3.98;43.26
46886;BME280;32622;48.202;11.326;2023-04-20T02:52:38;1017.64;;;3.00;43.29
46886;BME280;32622;48.202;11.326;2023-04-20T02:57:50;1017.73;;;2.46;46.35
46886;BME280;32622;48.202;11.326;2023-04-20T03:04:26;1017.66;;;2.40;46.00
46886;BME280;32622;48.202;11.326;2023-04-20T03:12:20;1018.04;;;1.18;48.81
46886;BME280;32622;48.202;11.326;2023-04-20T03:14:53;1018.31;;;-0.17;49.78
46886;BME280;32622;48.202;11.326;2023-04-20T03:21:22;1018.14;;;0.49;50.12
46886;BME280;32622;48.202;11.326;2023-04-20T03:25:31;1018.00;;;1.18;47.49
46886;BME280;32622;48.202;11.326;2023-04-20T03:28:42;1018.40;;;-0.43;50.31
46886;BME280;32622;48.202;11.326;2023-04-20T03:31:20;1017.92;;;1.32;46.94
46886;BME280;32622;48.202;11.326;2023-04-20T03:33:31;1017.87;;;1.08;46.25
46886;BME280;32622;48.202;11.326;2023-04-20T03:35:51;1018.00;;;0.59;47.04
46886;BME280;32622;48.202;11.326;2023-04-20T03:38:27;1017.82;;;1.41;46.02
46886;BME280;32622;48.202;11.326;2023-04-20T03:42:32;1017.66;;;2.15;45.60
46886;BME280;32622;48.202;11.326;2023-04-20T03:44:39;1018.00;;;0.42;45.78
46886;BME280;32622;48.202;11.326;2023-04-20T03:48:07;1017.54;;;2.09;44.12
46886;BME280;32622;48.202;11.326;2023-04-20T04:01:33;1017.38;;;2.20;44.80
46886;BME280;32622;48.202;11.326;2023-04-20T04:06:00;1017.26;;;2.77;43.16
46886;BME280;32622;48.202;11.326;2023-04-20T04:08:04;1017.38;;;2.38;42.31
46886;BME280;32622;48.202;11.326;2023-04-20T04:11:28;1016.91;;;3.99;41.17
46886;BME280;32622;48.202;11.326;2023-04-20T04:20:30;1017.54;;;1.54;45.53
46886;BME280;32622;48.202;11.326;2023-04-20T04:23:15;1017.18;;;2.83;43.09
46886;BME280;32622;48.202;11.326;2023-04-20T04:30:11;1017.13;;;2.48;44.16
46886;BME280;32622;48.202;11.326;2023-04-20T04:35:08;1017.36;;;1.68;45.79
46886;BME280;32622;48.202;11.326;2023-04-20T04:37:29;1017.52;;;1.10;46.54
46886;BME280;32622;48.202;11.326;2023-04-20T04:41:30;1016.92;;;3.42;44.27
46886;BME280;32622;48.202;11.326;2023-04-20T04:47:43;1016.99;;;3.25;43.53
46886;BME280;32622;48.202;11.326;2023-04-20T05:12:46;1017.74;;;0.52;54.63
46886;BME280;32622;48.202;11.326;2023-04-20T05:15:09;1018.25;;;-1.66;54.83
46886;BME280;32622;48.202;11.326;2023-04-20T05:17:23;1018.12;;;-1.41;52.40
46886;BME280;32622;48.202;11.326;2023-04-20T05:19:36;1018.02;;;-1.10;51.37
46886;BME280;32622;48.202;11.326;2023-04-20T05:21:50;1017.76;;;0.14;49.28
46886;BME280;32622;48.202;11.326;2023-04-20T05:27:23;1017.75;;;-0.08;49.66
46886;BME280;32622;48.202;11.326;2023-04-20T05:29:27;1018.02;;;-1.23;51.11
46886;BME280;32622;48.202;11.326;2023-04-20T05:31:31;1017.69;;;0.14;49.74
46886;BME280;32622;48.202;11.326;2023-04-20T05:33:35;1017.34;;;1.41;46.65
46886;BME280;32622;48.202;11.326;2023-04-20T05:35:39;1017.80;;;-0.36;48.59
46886;BME280;32622;48.202;11.326;2023-04-20T05:37:43;1017.90;;;-0.67;50.76
46886;BME280;32622;48.202;11.326;2023-04-20T05:39:47;1017.74;;;-0.08;50.00
46886;BME280;32622;48.202;11.326;2023-04-20T05:41:50;1017.83;;;-0.28;49.63
46886;BME280;32622;48.202;11.326;2023-04-20T05:43:54;1017.74;;;0.16;48.29
46886;BME280;32622;48.202;11.326;2023-04-20T05:45:58;1017.95;;;-0.53;50.04
46886;BME280;32622;48.202;11.326;2023-04-20T05:48:03;1018.00;;;-0.79;50.61
46886;BME280;32622;48.202;11.326;2023-04-20T05:50:07;1018.06;;;-1.08;52.38
46886;BME280;32622;48.202;11.326;2023-04-20T05:52:11;1017.80;;;-0.29;51.40
46886;BME280;32622;48.202;11.326;2023-04-20T05:54:15;1018.13;;;-1.41;53.14
46886;BME280;32622;48.202;11.326;2023-04-20T05:56:22;1018.14;;;-1.60;53.39
46886;BME280;32622;48.202;11.326;2023-04-20T05:58:26;1018.25;;;-2.00;54.04
46886;BME280;32622;48.202;11.326;2023-04-20T06:00:34;1018.17;;;-1.91;54.25
46886;BME280;32622;48.202;11.326;2023-04-20T06:02:38;1018.24;;;-2.21;54.94
46886;BME280;32622;48.202;11.326;2023-04-20T06:04:41;1018.09;;;-1.58;53.98
46886;BME280;32622;48.202;11.326;2023-04-20T06:06:44;1018.07;;;-1.60;53.81
46886;BME280;32622;48.202;11.326;2023-04-20T06:08:48;1017.87;;;-1.02;52.75
46886;BME280;32622;48.202;11.326;2023-04-20T06:10:53;1017.89;;;-1.20;53.32
46886;BME280;32622;48.202;11.326;2023-04-20T06:12:57;1017.91;;;-1.29;53.90
46886;BME280;32622;48.202;11.326;2023-04-20T06:15:00;1018.05;;;-1.82;55.72
46886;BME280;32622;48.202;11.326;2023-04-20T06:17:03;1018.04;;;-1.91;55.79
46886;BME280;32622;48.202;11.326;2023-04-20T06:19:07;1017.94;;;-1.78;56.33
46886;BME280;32622;48.202;11.326;2023-04-20T06:21:10;1017.71;;;-0.91;54.04
46886;BME280;32622;48.202;11.326;2023-04-20T06:23:14;1018.13;;;-2.33;55.84
46886;BME280;32622;48.202;11.326;2023-04-20T06:25:18;1017.77;;;-1.03;53.73
46886;BME280;32622;48.202;11.326;2023-04-20T06:27:21;1017.68;;;-0.74;52.35
46886;BME280;32622;48.202;11.326;2023-04-20T06:29:25;1017.63;;;-0.51;51.87
46886;BME280;32622;48.202;11.326;2023-04-20T06:31:30;1017.79;;;-1.33;52.44
46886;BME280;32622;48.202;11.326;2023-04-20T06:33:33;1017.65;;;-0.70;52.81
46886;BME280;32622;48.202;11.326;2023-04-20T06:35:39;1017.60;;;-0.43;52.36
46886;BME280;32622;48.202;11.326;2023-04-20T06:37:45;1017.89;;;-1.36;53.21
46886;BME280;32622;48.202;11.326;2023-04-20T06:39:52;1017.94;;;-1.71;55.85
46886;BME280;32622;48.202;11.326;2023-04-20T06:41:57;1017.57;;;-0.25;51.66
46886;BME280;32622;48.202;11.326;2023-04-20T06:44:00;1017.70;;;-0.76;52.69
46886;BME280;32622;48.202;11.326;2023-04-20T06:46:04;1017.84;;;-1.22;53.17
46886;BME280;32622;48.202;11.326;2023-04-20T06:48:07;1017.60;;;-0.15;51.51
46886;BME280;32622;48.202;11.326;2023-04-20T06:50:11;1017.29;;;0.80;48.91
46886;BME280;32622;48.202;11.326;2023-04-20T06:52:14;1017.59;;;-0.37;49.87
46886;BME280;32622;48.202;11.326;2023-04-20T06:54:18;1017.56;;;-0.32;51.82
46886;BME280;32622;48.202;11.326;2023-04-20T06:56:22;1017.61;;;-0.45;51.14
46886;BME280;32622;48.202;11.326;2023-04-20T07:05:23;1017.64;;;-0.73;53.30
46886;BME280;32622;48.202;11.326;2023-04-20T07:07:27;1017.85;;;-1.36;53.59
46886;BME280;32622;48.202;11.326;2023-04-20T07:09:31;1017.67;;;-0.73;52.57
46886;BME280;32622;48.202;11.326;2023-04-20T07:11:38;1017.89;;;-1.66;52.85
46886;BME280;32622;48.202;11.326;2023-04-20T07:13:44;1017.73;;;-1.08;52.88
46886;BME280;32622;48.202;11.326;2023-04-20T07:15:47;1017.56;;;-0.35;50.84
46886;BME280;32622;48.202;11.326;2023-04-20T07:18:02;1017.70;;;-0.64;52.19
46886;BME280;32622;48.202;11.326;2023-04-20T07:20:29;1017.85;;;-1.23;53.87
46886;BME280;32622;48.202;11.326;2023-04-20T07:22:45;1017.69;;;-0.47;52.35
46886;BME280;32622;48.202;11.326;2023-04-20T07:25:09;1017.82;;;-0.89;52.72
46886;BME280;32622;48.202;11.326;2023-04-20T07:30:08;1017.98;;;-1.43;53.38
46886;BME280;32622;48.202;11.326;2023-04-20T07:32:27;1017.97;;;-1.39;53.80
46886;BME280;32622;48.202;11.326;2023-04-20T07:37:37;1018.14;;;-1.65;54.69
46886;BME280;32622;48.202;11.326;2023-04-20T07:39:53;1018.01;;;-1.02;53.72
46886;BME280;32622;48.202;11.326;2023-04-20T07:42:32;1018.00;;;-1.00;53.03
46886;BME280;32622;48.202;11.326;2023-04-20T07:44:55;1018.13;;;-1.45;54.94
46886;BME280;32622;48.202;11.326;2023-04-20T07:46:58;1018.07;;;-1.40;53.50
46886;BME280;32622;48.202;11.326;2023-04-20T07:49:02;1017.90;;;-1.11;52.52
46886;BME280;32622;48.202;11.326;2023-04-20T07:51:05;1018.03;;;-1.68;54.10
46886;BME280;32622;48.202;11.326;2023-04-20T07:53:09;1018.06;;;-1.39;54.18
46886;BME280;32622;48.202;11.326;2023-04-20T07:55:13;1017.96;;;-1.76;55.78
46886;BME280;32622;48.202;11.326;2023-04-20T07:57:17;1018.04;;;-2.18;57.55
46886;BME280;32622;48.202;11.326;2023-04-20T07:59:20;1017.93;;;-1.68;56.36
46886;BME280;32622;48.202;11.326;2023-04-20T08:01:23;1017.89;;;-1.75;55.65
46886;BME280;32622;48.202;11.326;2023-04-20T08:03:59;1017.63;;;-0.41;57.60
46886;BME280;32622;48.202;11.326;2023-04-20T08:06:02;1017.84;;;-1.27;54.86
46886;BME280;32622;48.202;11.326;2023-04-20T08:08:06;1018.15;;;-2.34;57.37
46886;BME280;32622;48.202;11.326;2023-04-20T08:10:09;1018.40;;;-3.11;58.56
46886;BME280;32622;48.202;11.326;2023-04-20T08:12:12;1018.02;;;-1.64;56.07
46886;BME280;32622;48.202;11.326;2023-04-20T08:14:16;1018.06;;;-1.89;56.93
46886;BME280;32622;48.202;11.326;2023-04-20T08:16:20;1018.12;;;-1.87;56.31
46886;BME280;32622;48.202;11.326;2023-04-20T08:18:24;1018.04;;;-1.59;56.03
46886;BME280;32622;48.202;11.326;2023-04-20T08:20:28;1018.08;;;-1.73;56.20
46886;BME280;32622;48.202;11.326;2023-04-20T08:22:32;1017.86;;;-0.79;53.48
46886;BME280;32622;48.202;11.326;2023-04-20T08:24:35;1018.03;;;-1.51;52.64
46886;BME280;32622;48.202;11.326;2023-04-20T08:26:39;1018.19;;;-1.86;55.76
46886;BME280;32622;48.202;11.326;2023-04-20T08:28:44;1018.34;;;-2.23;56.11
46886;BME280;32622;48.202;11.326;2023-04-20T08:30:47;1018.14;;;-1.55;54.15
46886;BME280;32622;48.202;11.326;2023-04-20T08:32:49;1018.25;;;-1.82;55.62
46886;BME280;32622;48.202;11.326;2023-04-20T08:34:52;1017.79;;;-0.12;51.74
46886;BME280;32622;48.202;11.326;2023-04-20T08:36:55;1017.75;;;-0.04;49.55
46886;BME280;32622;48.202;11.326;2023-04-20T08:39:11;1017.94;;;-0.79;50.55
46886;BME280;32622;48.202;11.326;2023-04-20T08:41:14;1018.20;;;-1.81;54.66
46886;BME280;32622;48.202;11.326;2023-04-20T08:43:18;1018.32;;;-2.54;55.82
46886;BME280;32622;48.202;11.326;2023-04-20T08:45:21;1018.05;;;-1.39;53.17
46886;BME280;32622;48.202;11.326;2023-04-20T08:47:29;1018.09;;;-1.45;52.65
46886;BME280;32622;48.202;11.326;2023-04-20T08:49:36;1017.88;;;-0.44;51.53
46886;BME280;32622;48.202;11.326;2023-04-20T08:51:41;1017.90;;;-0.44;51.20
46886;BME280;32622;48.202;11.326;2023-04-20T08:53:45;1017.86;;;-0.25;50.14
46886;BME280;32622;48.202;11.326;2023-04-20T08:55:51;1017.90;;;-0.47;50.05
46886;BME280;32622;48.202;11.326;2023-04-20T08:57:54;1017.80;;;-0.23;51.16
46886;BME280;32622;48.202;11.326;2023-04-20T09:00:00;1017.68;;;0.21;49.56
46886;BME280;32622;48.202;11.326;2023-04-20T09:02:09;1017.83;;;-0.62;50.63
46886;BME280;32622;48.202;11.326;2023-04-20T09:04:18;1017.65;;;-0.03;50.27
46886;BME280;32622;48.202;11.326;2023-04-20T09:06:29;1017.75;;;-0.61;51.87
46886;BME280;32622;48.202;11.326;2023-04-20T09:08:38;1017.72;;;-0.58;51.41
46886;BME280;32622;48.202;11.326;2023-04-20T09:10:43;1017.45;;;0.07;51.47
46886;BME280;32622;48.202;11.326;2023-04-20T09:12:48;1017.53;;;-0.29;51.73
46886;BME280;32622;48.202;11.326;2023-04-20T09:14:53;1017.92;;;-1.63;54.56
46886;BME280;32622;48.202;11.326;2023-04-20T09:16:59;1017.48;;;-0.36;53.35
46886;BME280;32622;48.202;11.326;2023-04-20T09:19:04;1017.37;;;0.01;51.09
46886;BME280;32622;48.202;11.326;2023-04-20T09:21:32;1017.29;;;0.13;50.98
46886;BME280;32622;48.202;11.326;2023-04-20T09:23:40;1017.84;;;-1.74;55.15
46886;BME280;32622;48.202;11.326;2023-04-20T09:25:55;1017.70;;;-1.43;56.62
46886;BME280;32622;48.202;11.326;2023-04-20T09:28:00;1017.72;;;-1.68;56.18
46886;BME280;32622;48.202;11.326;2023-04-20T09:30:06;1017.94;;;-2.52;58.07
46886;BME280;32622;48.202;11.326;2023-04-20T09:32:31;1017.66;;;-1.62;56.79
46886;BME280;32622;48.202;11.326;2023-04-20T09:34:56;1017.38;;;-0.74;54.98
46886;BME280;32622;48.202;11.326;2023-04-20T09:37:04;1017.33;;;-0.27;54.48
46886;BME280;32622;48.202;11.326;2023-04-20T09:39:09;1017.52;;;-1.03;54.71
46886;BME280;32622;48.202;11.326;2023-04-20T09:41:13;1017.44;;;-0.94;54.30
46886;BME280;32622;48.202;11.326;2023-04-20T09:43:19;1017.47;;;-1.17;54.62
46886;BME280;32622;48.202;11.326;2023-04-20T09:45:27;1017.13;;;0.03;52.38
46886;BME280;32622;48.202;11.326;2023-04-20T09:47:34;1017.23;;;-0.95;55.01
46886;BME280;32622;48.202;11.326;2023-04-20T09:49:38;1017.45;;;-1.81;57.45
46886;BME280;32622;48.202;11.326;2023-04-20T09:51:42;1017.38;;;-1.79;56.90
46886;BME280;32622;48.202;11.326;2023-04-20T09:53:46;1017.19;;;-1.18;55.82
46886;BME280;32622;48.202;11.326;2023-04-20T09:55:50;1017.24;;;-1.35;55.43
46886;BME280;32622;48.202;11.326;2023-04-20T09:57:53;1017.12;;;-1.34;55.46
46886;BME280;32622;48.202;11.326;2023-04-20T09:59:57;1017.06;;;-1.02;55.53
46886;BME280;32622;48.202;11.326;2023-04-20T10:02:01;1017.10;;;-0.81;54.90
46886;BME280;32622;48.202;11.326;2023-04-20T10:04:07;1017.15;;;-0.88;54.63
46886;BME280;32622;48.202;11.326;2023-04-20T10:06:19;1017.21;;;-0.53;53.84
46886;BME280;32622;48.202;11.326;2023-04-20T10:08:22;1017.18;;;-0.31;52.76
46886;BME280;32622;48.202;11.326;2023-04-20T10:10:25;1017.24;;;-0.81;53.98
46886;BME280;32622;48.202;11.326;2023-04-20T10:12:29;1017.19;;;-0.86;55.56
46886;BME280;32622;48.202;11.326;2023-04-20T10:14:32;1017.61;;;-2.89;59.70
46886;BME280;32622;48.202;11.326;2023-04-20T10:16:36;1017.13;;;-1.08;56.31
46886;BME280;32622;48.202;11.326;2023-04-20T10:18:39;1017.36;;;-1.85;56.58
46886;BME280;32622;48.202;11.326;2023-04-20T10:20:42;1017.17;;;-0.83;55.75
46886;BME280;32622;48.202;11.326;2023-04-20T10:22:45;1017.22;;;-1.38;54.86
46886;BME280;32622;48.202;11.326;2023-04-20T10:24:49;1017.21;;;-1.21;55.59
46886;BME280;32622;48.202;11.326;2023-04-20T10:26:52;1017.37;;;-1.59;55.82
46886;BME280;32622;48.202;11.326;2023-04-20T10:28:55;1017.17;;;-1.09;55.80
46886;BME280;32622;48.202;11.326;2023-04-20T10:30:58;1017.21;;;-1.33;56.62
46886;BME280;32622;48.202;11.326;2023-04-20T10:33:03;1017.03;;;-0.93;56.22
46886;BME280;32622;48.202;11.326;2023-04-20T10:35:08;1017.03;;;-0.67;54.75
46886;BME280;32622;48.202;11.326;2023-04-20T10:37:12;1017.04;;;-0.58;53.95
46886;BME280;32622;48.202;11.326;2023-04-20T10:39:17;1017.02;;;-0.19;53.24
46886;BME280;32622;48.202;11.326;2023-04-20T10:41:20;1017.42;;;-1.74;56.13
46886;BME280;32622;48.202;11.326;2023-04-20T10:43:24;1017.21;;;-0.82;54.33
46886;BME280;32622;48.202;11.326;2023-04-20T10:45:33;1017.09;;;-0.57;54.02
46886;BME280;32622;48.202;11.326;2023-04-20T10:47:36;1017.06;;;-0.31;53.41
46886;BME280;32622;48.202;11.326;2023-04-20T10:49:38;1017.31;;;-1.24;55.99
46886;BME280;32622;48.202;11.326;2023-04-20T10:51:46;1017.39;;;-1.75;56.20
46886;BME280;32622;48.202;11.326;2023-04-20T10:54:02;1017.33;;;-1.51;56.06
46886;BME280;32622;48.202;11.326;2023-04-20T10:56:05;1017.20;;;-0.83;54.16
46886;BME280;32622;48.202;11.326;2023-04-20T10:58:19;1017.13;;;-0.68;53.88
46886;BME280;32622;48.202;11.326;2023-04-20T11:00:25;1017.14;;;-0.86;53.36
46886;BME280;32622;48.202;11.326;2023-04-20T11:02:28;1017.00;;;-0.40;53.00
46886;BME280;32622;48.202;11.326;2023-04-20T11:04:32;1016.62;;;0.52;49.67
46886;BME280;32622;48.202;11.326;2023-04-20T11:06:35;1016.62;;;0.34;50.24
46886;BME280;32622;48.202;11.326;2023-04-20T11:08:39;1016.52;;;0.62;50.70
46886;BME280;32622;48.202;11.326;2023-04-20T11:10:43;1017.07;;;-1.56;54.56
46886;BME280;32622;48.202;11.326;2023-04-20T11:12:46;1016.79;;;-0.47;53.25
46886;BME280;32622;48.202;11.326;2023-04-20T11:14:52;1016.81;;;-0.59;53.48
46886;BME280;32622;48.202;11.326;2023-04-20T11:16:55;1016.76;;;-0.29;51.99
46886;BME280;32622;48.202;11.326;2023-04-20T11:18:59;1016.71;;;0.04;50.37
46886;BME280;32622;48.202;11.326;2023-04-20T11:21:02;1016.71;;;-0.07;51.08
46886;BME280;32622;48.202;11.326;2023-04-20T11:23:05;1016.70;;;-0.35;53.99
46886;BME280;32622;48.202;11.326;2023-04-20T11:25:10;1016.70;;;-0.40;53.17
46886;BME280;32622;48.202;11.326;2023-04-20T11:27:19;1016.77;;;-0.72;53.45
46886;BME280;32622;48.202;11.326;2023-04-20T11:29:31;1016.64;;;-0.21;52.47
46886;BME280;32622;48.202;11.326;2023-04-20T11:31:34;1016.59;;;0.07;51.94
46886;BME280;32622;48.202;11.326;2023-04-20T11:33:36;1016.78;;;-0.71;52.50
46886;BME280;32622;48.202;11.326;2023-04-20T11:35:40;1016.87;;;-1.09;53.22
46886;BME280;32622;48.202;11.326;2023-04-20T11:37:47;1016.63;;;-0.23;53.15
46886;BME280;32622;48.202;11.326;2023-04-20T11:39:59;1016.52;;;-0.34;53.07
46886;BME280;32622;48.202;11.326;2023-04-20T11:42:02;1016.51;;;-0.43;53.61
46886;BME280;32622;48.202;11.326;2023-04-20T11:44:05;1016.24;;;0.49;51.34
46886;BME280;32622;48.202;11.326;2023-04-20T11:46:15;1016.14;;;0.67;50.35
46886;BME280;32622;48.202;11.326;2023-04-20T11:48:19;1016.11;;;0.62;49.87
46886;BME280;32622;48.202;11.326;2023-04-20T11:50:22;1016.00;;;0.99;49.26
46886;BME280;32622;48.202;11.326;2023-04-20T11:52:25;1016.03;;;0.96;48.75
46886;BME280;32622;48.202;11.326;2023-04-20T11:54:28;1016.12;;;0.55;48.94
46886;BME280;32622;48.202;11.326;2023-04-20T11:56:31;1016.04;;;0.78;49.00
46886;BME280;32622;48.202;11.326;2023-04-20T11:58:33;1016.04;;;0.71;48.54
46886;BME280;32622;48.202;11.326;2023-04-20T12:00:36;1016.18;;;0.17;50.88
46886;BME280;32622;48.202;11.326;2023-04-20T12:02:39;1016.13;;;0.24;50.35
46886;BME280;32622;48.202;11.326;2023-04-20T12:04:42;1016.30;;;-0.01;52.19
46886;BME280;32622;48.202;11.326;2023-04-20T12:06:45;1016.15;;;0.56;49.89
46886;BME280;32622;48.202;11.326;2023-04-20T12:08:55;1016.10;;;0.95;49.80
46886;BME280;32622;48.202;11.326;2023-04-20T12:10:58;1016.18;;;0.50;50.42
46886;BME280;32622;48.202;11.326;2023-04-20T12:13:00;1015.91;;;1.78;46.90
46886;BME280;32622;48.202;11.326;2023-04-20T12:15:04;1016.02;;;1.16;47.62
46886;BME280;32622;48.202;11.326;2023-04-20T12:17:07;1015.84;;;1.75;46.52
46886;BME280;32622;48.202;11.326;2023-04-20T12:19:10;1015.87;;;1.46;47.23
46886;BME280;32622;48.202;11.326;2023-04-20T12:21:13;1016.14;;;0.44;49.70
46886;BME280;32622;48.202;11.326;2023-04-20T12:23:16;1016.19;;;0.03;51.19
46886;BME280;32622;48.202;11.326;2023-04-20T12:25:20;1016.03;;;0.92;49.31
46886;BME280;32622;48.202;11.326;2023-04-20T12:27:23;1016.20;;;0.25;50.09
46886;BME280;32622;48.202;11.326;2023-04-20T12:29:26;1016.21;;;0.18;51.22
46886;BME280;32622;48.202;11.326;2023-04-20T12:31:29;1016.27;;;-0.07;52.06
46886;BME280;32622;48.202;11.326;2023-04-20T12:33:32;1015.99;;;0.74;49.28
46886;BME280;32622;48.202;11.326;2023-04-20T12:35:35;1016.03;;;0.58;50.89
46886;BME280;32622;48.202;11.326;2023-04-20T12:37:41;1016.14;;;0.28;50.06
46886;BME280;32622;48.202;11.326;2023-04-20T12:39:45;1015.88;;;0.94;49.74
46886;BME280;32622;48.202;11.326;2023-04-20T12:41:58;1016.08;;;0.05;50.66
46886;BME280;32622;48.202;11.326;2023-04-20T12:44:00;1015.87;;;0.84;49.67
46886;BME280;32622;48.202;11.326;2023-04-20T12:46:04;1016.14;;;-0.38;51.08
46886;BME280;32622;48.202;11.326;2023-04-20T12:48:07;1015.64;;;1.59;47.80
46886;BME280;32622;48.202;11.326;2023-04-20T12:50:10;1015.77;;;1.22;48.02
46886;BME280;32622;48.202;11.326;2023-04-20T12:52:13;1015.67;;;1.46;47.22
46886;BME280;32622;48.202;11.326;2023-04-20T12:54:17;1015.84;;;0.72;48.00
46886;BME280;32622;48.202;11.326;2023-04-20T12:56:22;1015.69;;;1.19;47.06
46886;BME280;32622;48.202;11.326;2023-04-20T12:58:25;1015.44;;;2.16;45.43
46886;BME280;32622;48.202;11.326;2023-04-20T13:00:29;1015.37;;;2.73;44.99
46886;BME280;32622;48.202;11.326;2023-04-20T13:02:32;1015.69;;;1.69;46.22
46886;BME280;32622;48.202;11.326;2023-04-20T13:04:37;1015.69;;;1.49;45.66
46886;BME280;32622;48.202;11.326;2023-04-20T13:06:42;1015.32;;;3.12;43.75
46886;BME280;32622;48.202;11.326;2023-04-20T13:08:45;1015.33;;;3.13;43.01
46886;BME280;32622;48.202;11.326;2023-04-20T13:10:49;1015.37;;;2.82;43.25
46886;BME280;32622;48.202;11.326;2023-04-20T13:12:52;1015.33;;;2.84;42.30